.
WxDataArchive / Data Records for 2009-03-25
2009-03-24 March 2009 2009-03-26

Data Records for Wednesday, 25 March 2009

Time	Temp	Chill	HIndex	Humid	Dewpt	 Wind 	HiWind	WindDir	Rain 	Barom 
-----	----	-----	------	-----	-----	------	------	-------	-----	----- 
00:00	60.2	60.2	60.2	41	36.4	4	12	112	0.00	29.867 
00:05	59.9	59.9	59.9	42	36.8	3	7	112	0.00	29.866 
00:10	59.8	59.8	59.8	43	37.3	3	7	112	0.00	29.867 
00:15	59.8	59.8	59.8	44	37.8	3	7	90	0.00	29.868 
00:20	59.6	59.6	59.6	44	37.7	3	7	112	0.00	29.867 
00:25	59.6	59.6	59.6	44	37.7	3	6	112	0.00	29.867 
00:30	59.8	59.8	59.8	44	37.8	3	9	112	0.00	29.865 
00:35	59.8	59.8	59.8	44	37.8	3	7	90	0.00	29.862 
00:40	59.9	59.9	59.9	43	37.3	3	7	112	0.00	29.855 
00:45	60.1	60.1	60.1	44	38.1	3	10	112	0.00	29.851 
00:50	60.1	60.1	60.1	44	38.1	3	7	90	0.00	29.848 
00:55	60.2	60.2	60.2	43	37.6	4	9	112	0.00	29.849 
01:00	60.4	60.4	60.4	44	38.4	3	7	90	0.00	29.849 
01:05	60.5	60.5	60.5	44	38.5	3	9	90	0.00	29.845 
01:10	60.5	60.5	60.5	44	38.5	4	11	90	0.00	29.844 
01:15	60.7	60.7	60.7	44	38.7	3	7	90	0.00	29.844 
01:20	60.9	60.9	60.9	45	39.4	3	9	112	0.00	29.845 
01:25	60.7	60.7	60.7	46	39.8	3	11	68	0.00	29.847 
01:30	60.5	60.5	60.5	48	40.7	3	9	112	0.00	29.845 
01:35	60.2	60.2	60.2	49	41.0	4	9	112	0.00	29.845 
01:40	60.2	60.2	60.2	49	41.0	4	12	112	0.00	29.842 
01:45	60.2	60.2	60.2	49	41.0	3	6	90	0.00	29.834 
01:50	60.2	60.2	60.2	50	41.5	3	7	90	0.00	29.832 
01:55	60.2	60.2	60.2	50	41.5	3	9	112	0.00	29.831 
02:00	60.2	60.2	60.2	51	42.0	3	7	90	0.00	29.833 
02:05	60.4	60.4	60.4	54	43.7	3	9	90	0.00	29.831 
02:10	60.1	60.1	60.1	58	45.3	3	7	90	0.00	29.831 
02:15	59.6	59.6	59.6	58	44.8	3	7	90	0.00	29.826 
02:20	59.6	59.6	59.6	60	45.7	3	11	90	0.00	29.825 
02:25	59.6	59.6	59.6	61	46.1	3	10	90	0.00	29.818 
02:30	59.6	59.6	59.6	62	46.6	3	9	90	0.00	29.816 
02:35	59.6	59.6	59.6	62	46.6	4	9	112	0.00	29.815 
02:40	59.6	59.6	59.6	63	47.0	4	10	90	0.00	29.813 
02:45	59.6	59.6	59.6	64	47.4	5	11	90	0.00	29.814 
02:50	59.6	59.6	59.6	65	47.8	4	10	90	0.00	29.813 
02:55	59.5	59.5	59.5	66	48.1	3	9	90	0.00	29.811 
03:00	59.5	59.5	59.5	66	48.1	4	12	90	0.00	29.812 
03:05	59.6	59.6	59.6	66	48.2	4	11	90	0.00	29.810 
03:10	59.8	59.8	59.8	67	48.8	5	12	90	0.00	29.810 
03:15	59.6	59.6	59.6	73	50.9	4	15	90	0.02	29.808 
03:20	58.4	58.4	58.4	79	51.9	4	13	90	0.02	29.804 
03:25	57.5	57.5	57.5	82	52.0	4	10	90	0.00	29.802 
03:30	56.9	56.9	56.9	84	52.1	2	6	112	0.00	29.806 
03:35	56.7	56.7	56.7	85	52.2	2	5	315	0.00	29.809 
03:40	56.6	56.6	56.6	85	52.1	2	5	112	0.00	29.805 
03:45	56.6	56.6	56.6	85	52.1	3	10	90	0.00	29.802 
03:50	56.7	56.7	56.7	85	52.2	3	10	112	0.00	29.809 
03:55	56.7	56.7	56.7	85	52.2	2	6	248	0.00	29.813 
04:00	56.7	56.7	56.7	85	52.2	4	10	90	0.00	29.801 
04:05	56.9	56.9	56.9	85	52.4	4	8	90	0.00	29.804 
04:10	57.0	57.0	57.0	85	52.5	3	7	90	0.00	29.803 
04:15	57.3	57.3	57.3	88	53.8	4	7	90	0.00	29.802 
04:20	57.5	57.5	57.5	84	52.7	4	8	90	0.00	29.798 
04:25	57.6	57.6	57.6	84	52.8	4	12	90	0.00	29.797 
04:30	57.8	57.8	57.8	84	53.0	3	6	90	0.00	29.796 
04:35	57.8	57.8	57.8	84	53.0	4	9	90	0.00	29.795 
04:40	57.6	57.6	57.6	84	52.8	3	10	90	0.00	29.792 
04:45	57.6	57.6	57.6	84	52.8	3	7	90	0.00	29.791 
04:50	57.8	57.8	57.8	84	53.0	3	12	112	0.00	29.788 
04:55	57.6	57.6	57.6	84	52.8	3	6	90	0.00	29.784 
05:00	57.8	57.8	57.8	84	53.0	3	14	90	0.00	29.781 
05:05	57.8	57.8	57.8	84	53.0	3	9	90	0.00	29.783 
05:10	57.8	57.8	57.8	84	53.0	4	9	112	0.00	29.783 
05:15	57.8	57.8	57.8	85	53.3	3	7	112	0.00	29.783 
05:20	57.6	57.6	57.6	87	53.8	4	9	90	0.00	29.782 
05:25	57.5	57.5	57.5	87	53.7	4	7	68	0.00	29.782 
05:30	57.5	57.5	57.5	88	54.0	3	9	90	0.00	29.779 
05:35	57.5	57.5	57.5	87	53.7	4	13	90	0.00	29.774 
05:40	57.6	57.6	57.6	87	53.8	4	9	90	0.00	29.774 
05:45	57.6	57.6	57.6	87	53.8	4	7	112	0.00	29.776 
05:50	57.6	57.6	57.6	87	53.8	4	9	90	0.00	29.776 
05:55	57.6	57.6	57.6	87	53.8	4	11	90	0.00	29.776 
06:00	57.6	57.6	57.6	87	53.8	5	12	90	0.00	29.772 
06:05	57.6	57.6	57.6	86	53.4	5	13	90	0.00	29.771 
06:10	57.8	57.8	57.8	86	53.6	5	11	90	0.00	29.772 
06:15	57.8	57.8	57.8	86	53.6	4	11	68	0.00	29.774 
06:20	57.8	57.8	57.8	86	53.6	6	12	90	0.00	29.771 
06:25	57.8	57.8	57.8	86	53.6	4	15	90	0.00	29.771 
06:30	57.8	57.8	57.8	86	53.6	4	10	90	0.00	29.770 
06:35	57.8	57.8	57.8	85	53.3	5	14	90	0.00	29.770 
06:40	57.8	57.8	57.8	85	53.3	4	14	90	0.00	29.770 
06:45	57.8	57.8	57.8	85	53.3	4	10	90	0.00	29.770 
06:50	57.6	57.6	57.6	86	53.4	3	12	112	0.00	29.771 
06:55	57.6	57.6	57.6	86	53.4	5	12	90	0.00	29.772 
07:00	57.5	57.5	57.5	87	53.7	4	12	90	0.02	29.770 
07:05	57.3	57.3	57.3	88	53.8	4	11	90	0.01	29.771 
07:10	57.2	57.2	57.2	89	54.0	4	13	90	0.00	29.771 
07:15	57.0	57.0	57.0	89	53.8	5	12	112	0.00	29.769 
07:20	57.0	57.0	57.0	89	53.8	4	9	112	0.00	29.768 
07:25	57.0	57.0	57.0	89	53.8	4	10	112	0.00	29.769 
07:30	57.0	57.0	57.0	90	54.1	5	10	90	0.00	29.769 
07:35	57.0	57.0	57.0	89	53.8	4	11	90	0.00	29.768 
07:40	57.2	57.2	57.2	90	54.3	3	11	112	0.01	29.766 
07:45	57.2	57.2	57.2	90	54.3	4	10	90	0.00	29.764 
07:50	57.2	57.2	57.2	90	54.3	4	9	112	0.00	29.766 
07:55	57.2	57.2	57.2	90	54.3	4	9	90	0.00	29.764 
08:00	57.2	57.2	57.2	90	54.3	4	12	90	0.00	29.763 
08:05	57.3	57.3	57.3	90	54.4	5	10	90	0.00	29.765 
08:10	57.3	57.3	57.3	90	54.4	4	9	90	0.00	29.771 
08:15	57.3	57.3	57.3	90	54.4	4	11	90	0.00	29.772 
08:20	57.2	57.2	57.2	90	54.3	3	6	248	0.00	29.773 
08:25	54.4	54.4	54.4	86	50.3	3	6	248	0.01	29.784 
08:30	52.8	52.8	52.8	87	49.0	1	5	248	0.02	29.788 
08:35	51.7	51.7	51.7	88	48.3	1	3	270	0.01	29.792 
08:40	50.5	50.5	50.5	89	47.4	1	5	315	0.00	29.790 
08:45	49.8	49.8	49.8	90	47.0	1	4	315	0.01	29.797 
08:50	49.4	49.4	49.4	91	46.9	1	4	270	0.00	29.797 
08:55	49.1	49.1	49.1	92	46.9	1	3	248	0.00	29.798 
09:00	48.8	48.8	48.8	92	46.6	2	5	248	0.01	29.802 
09:05	48.6	48.6	48.6	92	46.4	1	3	270	0.00	29.808 
09:10	48.5	48.5	48.5	93	46.6	1	3	270	0.00	29.805 
09:15	48.5	48.5	48.5	93	46.6	1	4	248	0.01	29.806 
09:20	48.3	48.3	48.3	93	46.4	1	4	248	0.00	29.808 
09:25	48.3	48.3	48.3	93	46.4	1	2	270	0.00	29.805 
09:30	48.3	48.3	48.3	94	46.7	1	4	270	0.00	29.811 
09:35	48.3	48.3	48.3	94	46.7	0	2	248	0.00	29.810 
09:40	48.5	48.5	48.5	94	46.9	0	2	248	0.00	29.809 
09:45	48.5	48.5	48.5	94	46.9	0	3	248	0.00	29.811 
09:50	48.6	48.6	48.6	94	47.0	1	3	248	0.00	29.813 
09:55	48.6	48.6	48.6	94	47.0	0	3	248	0.00	29.811 
10:00	48.8	48.8	48.8	94	47.1	0	1	248	0.01	29.810 
10:05	48.8	48.8	48.8	94	47.1	0	3	248	0.00	29.808 
10:10	48.8	48.8	48.8	94	47.1	2	4	248	0.00	29.810 
10:15	48.8	48.8	48.8	94	47.1	2	5	248	0.00	29.814 
10:20	48.9	48.9	48.9	94	47.2	1	4	248	0.00	29.811 
10:25	49.1	49.1	49.1	94	47.4	2	6	248	0.00	29.815 
10:30	49.1	49.1	49.1	94	47.4	1	5	248	0.00	29.810 
10:35	49.4	49.4	49.4	94	47.7	0	2	248	0.00	29.811 
10:40	49.6	49.6	49.6	94	47.9	1	3	248	0.00	29.810 
10:45	49.8	49.8	49.8	94	48.1	1	4	248	0.00	29.809 
10:50	49.8	49.8	49.8	93	47.9	1	3	248	0.00	29.809 
10:55	50.1	50.1	50.1	93	48.2	1	2	248	0.00	29.808 
11:00	50.7	50.7	50.7	93	48.7	0	3	248	0.00	29.806 
11:05	51.0	51.0	51.0	92	48.8	1	2	248	0.00	29.807 
11:10	51.1	51.1	51.1	91	48.6	1	2	248	0.00	29.806 
11:15	51.4	51.4	51.4	91	48.9	0	3	248	0.00	29.804 
11:20	51.7	51.7	51.7	89	48.6	1	6	248	0.00	29.802 
11:25	51.9	51.9	51.9	88	48.5	2	4	248	0.00	29.803 
11:30	51.9	51.9	51.9	86	47.8	1	5	248	0.00	29.804 
11:35	52.2	52.2	52.2	85	47.8	1	5	225	0.00	29.803 
11:40	52.5	52.5	52.5	83	47.5	2	7	248	0.00	29.806 
11:45	52.8	52.8	52.8	81	47.1	3	10	248	0.00	29.806 
11:50	53.2	53.2	53.2	81	47.5	2	5	270	0.00	29.803 
11:55	53.9	53.9	53.9	81	48.2	1	3	248	0.00	29.795 
12:00	54.5	54.5	54.5	78	47.8	2	7	248	0.00	29.799 
12:05	54.7	54.7	54.7	76	47.3	3	6	248	0.00	29.799 
12:10	54.5	54.5	54.5	74	46.4	3	9	248	0.00	29.797 
12:15	54.5	54.5	54.5	73	46.0	3	9	248	0.00	29.796 
12:20	54.7	54.7	54.7	74	46.6	3	7	248	0.00	29.798 
12:25	55.1	55.1	55.1	73	46.6	3	10	248	0.00	29.797 
12:30	55.1	55.1	55.1	72	46.2	3	10	248	0.00	29.795 
12:35	55.3	55.3	55.3	71	46.1	2	5	248	0.00	29.800 
12:40	55.6	55.6	55.6	69	45.6	3	9	248	0.00	29.795 
12:45	55.7	55.7	55.7	68	45.3	3	9	270	0.00	29.794 
12:50	56.0	56.0	56.0	66	44.8	3	11	270	0.00	29.794 
12:55	56.2	56.2	56.2	65	44.6	3	8	248	0.00	29.791 
13:00	56.2	56.2	56.2	64	44.2	4	7	248	0.00	29.794 
13:05	56.2	56.2	56.2	67	45.4	2	6	248	0.00	29.792 
13:10	56.6	56.6	56.6	65	45.0	4	7	248	0.00	29.790 
13:15	56.9	56.9	56.9	65	45.3	4	9	248	0.00	29.787 
13:20	57.3	57.3	57.3	65	45.6	3	6	248	0.00	29.788 
13:25	57.6	57.6	57.6	65	45.9	2	6	248	0.00	29.789 
13:30	58.0	58.0	58.0	65	46.3	2	7	248	0.00	29.786 
13:35	57.8	57.8	57.8	63	45.3	3	7	248	0.00	29.785 
13:40	57.6	57.6	57.6	63	45.1	3	9	248	0.00	29.784 
13:45	57.6	57.6	57.6	64	45.5	2	8	248	0.00	29.783 
13:50	57.2	57.2	57.2	64	45.1	3	7	248	0.00	29.784 
13:55	57.0	57.0	57.0	66	45.8	2	6	225	0.00	29.785 
14:00	57.0	57.0	57.0	64	44.9	3	9	270	0.00	29.782 
14:05	57.2	57.2	57.2	65	45.5	2	5	270	0.00	29.779 
14:10	58.0	58.0	58.0	65	46.3	2	5	248	0.00	29.775 
14:15	58.7	58.7	58.7	62	45.7	4	8	270	0.00	29.774 
14:20	58.7	58.7	58.7	61	45.3	4	10	248	0.00	29.775 
14:25	58.9	58.9	58.9	61	45.5	3	12	248	0.00	29.777 
14:30	59.5	59.5	59.5	62	46.5	4	11	248	0.00	29.777 
14:35	60.2	60.2	60.2	58	45.4	4	10	248	0.00	29.776 
14:40	60.4	60.4	60.4	59	46.0	4	10	248	0.00	29.772 
14:45	60.4	60.4	60.4	59	46.0	4	10	248	0.00	29.776 
14:50	60.4	60.4	60.4	58	45.6	4	9	248	0.00	29.771 
14:55	59.9	59.9	59.9	59	45.5	3	9	225	0.00	29.771 
15:00	59.5	59.5	59.5	60	45.6	2	6	248	0.00	29.769 
15:05	59.2	59.2	59.2	61	45.8	3	12	248	0.00	29.772 
15:10	59.0	59.0	59.0	61	45.6	4	10	248	0.00	29.774 
15:15	59.3	59.3	59.3	60	45.4	3	7	248	0.00	29.771 
15:20	59.8	59.8	59.8	57	44.5	3	9	248	0.00	29.772 
15:25	59.9	59.9	59.9	57	44.6	4	11	248	0.00	29.771 
15:30	59.8	59.8	59.8	56	44.1	3	11	248	0.00	29.772 
15:35	59.9	59.9	59.9	56	44.2	3	7	248	0.00	29.771 
15:40	59.8	59.8	59.8	54	43.1	5	13	248	0.00	29.772 
15:45	59.6	59.6	59.6	54	42.9	5	12	248	0.00	29.773 
15:50	59.6	59.6	59.6	55	43.4	3	10	270	0.00	29.774 
15:55	59.6	59.6	59.6	55	43.4	2	7	248	0.00	29.774 
16:00	59.9	59.9	59.9	52	42.2	4	12	248	0.00	29.772 
16:05	59.8	59.8	59.8	52	42.1	5	11	270	0.00	29.773 
16:10	60.1	60.1	60.1	53	42.9	3	7	248	0.00	29.776 
16:15	60.7	60.7	60.7	52	43.0	3	6	248	0.00	29.774 
16:20	61.2	61.2	61.2	50	42.4	4	10	248	0.00	29.773 
16:25	61.2	61.2	61.2	48	41.3	5	14	248	0.00	29.773 
16:30	61.0	61.0	61.0	48	41.2	6	15	270	0.00	29.775 
16:35	60.9	60.9	60.9	47	40.5	5	14	248	0.00	29.779 
16:40	60.9	60.9	60.9	49	41.6	4	8	248	0.00	29.782 
16:45	61.0	61.0	61.0	49	41.7	4	11	248	0.00	29.784 
16:50	60.9	60.9	60.9	47	40.5	3	9	270	0.00	29.785 
16:55	60.5	60.5	60.5	48	40.7	5	12	248	0.00	29.786 
17:00	60.4	60.4	60.4	47	40.1	6	14	248	0.00	29.787 
17:05	60.7	60.7	60.7	48	40.9	4	8	248	0.00	29.787 
17:10	60.4	60.4	60.4	47	40.1	5	10	248	0.00	29.791 
17:15	59.9	59.9	59.9	48	40.2	4	9	248	0.00	29.790 
17:20	59.8	59.8	59.8	47	39.5	5	15	270	0.00	29.792 
17:25	59.9	59.9	59.9	48	40.2	4	10	248	0.00	29.797 
17:30	59.9	59.9	59.9	47	39.6	3	7	248	0.00	29.800 
17:35	59.6	59.6	59.6	48	39.9	4	10	270	0.00	29.802 
17:40	59.3	59.3	59.3	47	39.1	3	15	248	0.00	29.800 
17:45	59.2	59.2	59.2	48	39.5	3	7	248	0.00	29.801 
17:50	59.0	59.0	59.0	48	39.3	3	7	248	0.00	29.803 
17:55	58.9	58.9	58.9	48	39.2	3	9	248	0.00	29.804 
18:00	58.6	58.6	58.6	49	39.5	3	9	248	0.00	29.806 
18:05	58.3	58.3	58.3	49	39.2	3	5	270	0.00	29.805 
18:10	58.0	58.0	58.0	50	39.5	2	6	225	0.00	29.805 
18:15	58.0	58.0	58.0	50	39.5	2	7	270	0.00	29.809 
18:20	57.8	57.8	57.8	49	38.8	3	10	248	0.00	29.813 
18:25	57.5	57.5	57.5	49	38.5	3	9	270	0.00	29.814 
18:30	57.0	57.0	57.0	50	38.5	2	6	248	0.00	29.819 
18:35	56.7	56.7	56.7	49	37.8	3	7	270	0.00	29.820 
18:40	56.3	56.3	56.3	49	37.4	3	6	270	0.00	29.821 
18:45	56.2	56.2	56.2	49	37.3	3	10	248	0.00	29.821 
18:50	55.9	55.9	55.9	50	37.5	1	5	248	0.00	29.821 
18:55	55.6	55.6	55.6	50	37.3	1	2	248	0.00	29.821 
19:00	55.3	55.3	55.3	52	38.0	2	6	248	0.00	29.824 
19:05	55.1	55.1	55.1	53	38.3	1	3	248	0.00	29.825 
19:10	54.8	54.8	54.8	54	38.5	1	3	248	0.00	29.825 
19:15	54.7	54.7	54.7	54	38.4	1	3	248	0.00	29.826 
19:20	54.4	54.4	54.4	55	38.6	1	3	248	0.00	29.826 
19:25	54.1	54.1	54.1	56	38.8	1	3	270	0.00	29.834 
19:30	53.8	53.8	53.8	57	38.9	1	3	270	0.00	29.837 
19:35	53.5	53.5	53.5	57	38.6	1	3	270	0.00	29.840 
19:40	53.2	53.2	53.2	58	38.8	0	2	270	0.00	29.842 
19:45	52.9	52.9	52.9	58	38.5	1	3	270	0.00	29.839 
19:50	52.8	52.8	52.8	58	38.4	1	2	270	0.00	29.840 
19:55	52.6	52.6	52.6	59	38.7	1	3	270	0.00	29.839 
20:00	52.3	52.3	52.3	59	38.4	1	3	270	0.00	29.841 
20:05	52.2	52.2	52.2	59	38.3	0	2	270	0.00	29.850 
20:10	51.9	51.9	51.9	60	38.5	0	1	270	0.00	29.849 
20:15	51.7	51.7	51.7	60	38.3	0	2	270	0.00	29.851 
20:20	51.6	51.6	51.6	60	38.2	0	1	270	0.00	29.852 
20:25	51.4	51.4	51.4	60	38.0	0	1	270	0.00	29.850 
20:30	51.3	51.3	51.3	61	38.3	0	1	270	0.00	29.851 
20:35	51.1	51.1	51.1	61	38.1	0	1	270	0.00	29.849 
20:40	50.8	50.8	50.8	62	38.3	0	1	270	0.00	29.850 
20:45	50.5	50.5	50.5	62	38.0	0	2	270	0.00	29.848 
20:50	50.2	50.2	50.2	62	37.7	0	1	270	0.00	29.850 
20:55	49.9	49.9	49.9	63	37.8	0	1	270	0.00	29.852 
21:00	49.5	49.5	49.5	64	37.8	0	1	270	0.00	29.865 
21:05	49.2	49.2	49.2	64	37.5	0	1	270	0.00	29.877 
21:10	48.9	48.9	48.9	65	37.7	0	2	270	0.00	29.879 
21:15	48.8	48.8	48.8	65	37.6	0	1	270	0.00	29.881 
21:20	48.6	48.6	48.6	66	37.8	0	1	270	0.00	29.882 
21:25	48.5	48.5	48.5	66	37.7	0	2	270	0.00	29.884 
21:30	48.3	48.3	48.3	67	37.9	0	2	270	0.00	29.884 
21:35	48.2	48.2	48.2	67	37.8	0	1	270	0.00	29.881 
21:40	48.0	48.0	48.0	67	37.6	0	1	270	0.00	29.880 
21:45	47.9	47.9	47.9	67	37.5	0	2	270	0.00	29.883 
21:50	47.7	47.7	47.7	67	37.3	0	1	270	0.00	29.884 
21:55	47.6	47.6	47.6	67	37.2	0	1	270	0.00	29.881 
22:00	47.4	47.4	47.4	68	37.4	0	1	270	0.00	29.886 
22:05	47.3	47.3	47.3	68	37.3	0	0	---	0.00	29.883 
22:10	47.1	47.1	47.1	68	37.1	0	1	270	0.00	29.885 
22:15	47.0	47.0	47.0	68	37.0	0	1	270	0.00	29.891 
22:20	46.8	46.8	46.8	69	37.2	0	1	270	0.00	29.889 
22:25	46.8	46.8	46.8	69	37.2	0	1	270	0.00	29.891 
22:30	46.8	46.8	46.8	69	37.2	0	1	270	0.00	29.884 
22:35	46.7	46.7	46.7	69	37.1	0	3	270	0.00	29.892 
22:40	46.7	46.7	46.7	69	37.1	0	1	270	0.00	29.888 
22:45	46.5	46.5	46.5	69	36.9	0	1	270	0.00	29.897 
22:50	46.5	46.5	46.5	69	36.9	0	2	270	0.00	29.897 
22:55	46.4	46.4	46.4	69	36.8	0	1	270	0.00	29.891 
23:00	46.2	46.2	46.2	69	36.6	0	1	270	0.00	29.896 
23:05	46.1	46.1	46.1	69	36.5	0	1	270	0.00	29.896 
23:10	46.1	46.1	46.1	70	36.9	0	0	---	0.00	29.889 
23:15	45.8	45.8	45.8	70	36.6	0	1	270	0.00	29.892 
23:20	45.5	45.5	45.5	70	36.3	0	0	---	0.00	29.884 
23:25	45.2	45.2	45.2	71	36.4	0	0	---	0.00	29.882 
23:30	44.9	44.9	44.9	71	36.1	0	1	270	0.00	29.889 
23:35	44.6	44.6	44.6	72	36.1	0	1	270	0.00	29.885 
23:40	44.3	44.3	44.3	73	36.2	0	1	270	0.00	29.884 
23:45	43.9	43.9	43.9	73	35.8	0	0	---	0.00	29.885 
23:50	43.6	43.6	43.6	74	35.9	0	0	---	0.00	29.893 
23:55	43.2	43.2	43.2	74	35.5	0	0	---	0.00	29.884 

CoCoRaHS
IN-AL-39
A2 Web Hosting
Creative Commons License
GoDaddy
search engine by freefind advanced

loaded 2018-11-13 01:34:20 • last modified 2010-11-18 10:43:29
Privacy PolicyDisclaimer
• wx.awcolley.com is powered by PmWiki v.2002016 •
• all content (unless otherwise noted) © 2018 A W Colley